createdAt,value
2023-03-29T00:00:11.683Z,100.00
2023-03-29T00:02:47.443Z,100.00
2023-03-29T00:05:25.774Z,100.00
2023-03-29T00:08:00.125Z,100.00
2023-03-29T00:10:35.893Z,100.00
2023-03-29T00:13:09.320Z,100.00
2023-03-29T00:15:43.882Z,100.00
2023-03-29T00:18:16.760Z,100.00
2023-03-29T00:21:01.019Z,100.00
2023-03-29T00:23:33.520Z,100.00
2023-03-29T00:26:08.310Z,100.00
2023-03-29T00:28:42.146Z,100.00
2023-03-29T00:31:17.883Z,100.00
2023-03-29T00:33:50.781Z,100.00
2023-03-29T00:36:24.401Z,100.00
2023-03-29T00:38:58.535Z,100.00
2023-03-29T00:41:32.256Z,100.00
2023-03-29T00:44:06.728Z,100.00
2023-03-29T00:46:38.754Z,100.00
2023-03-29T00:49:16.266Z,100.00
2023-03-29T00:51:49.619Z,100.00
2023-03-29T00:54:25.249Z,100.00
2023-03-29T00:56:58.475Z,100.00
2023-03-29T00:59:35.097Z,100.00
2023-03-29T01:02:09.215Z,100.00
2023-03-29T01:05:04.158Z,100.00
2023-03-29T01:07:50.736Z,100.00
2023-03-29T01:10:41.103Z,100.00
2023-03-29T01:13:18.935Z,100.00
2023-03-29T01:15:53.406Z,100.00
2023-03-29T01:18:26.441Z,100.00
2023-03-29T01:21:05.289Z,100.00
2023-03-29T01:24:10.241Z,100.00
2023-03-29T01:27:11.105Z,100.00
2023-03-29T01:29:54.521Z,100.00
2023-03-29T01:32:36.582Z,100.00
2023-03-29T01:35:19.762Z,100.00
2023-03-29T01:38:00.175Z,100.00
2023-03-29T01:40:35.226Z,100.00
2023-03-29T01:43:31.833Z,100.00
2023-03-29T01:46:34.096Z,100.00
2023-03-29T01:49:17.851Z,100.00
2023-03-29T01:52:01.578Z,100.00
2023-03-29T01:54:41.928Z,100.00
2023-03-29T01:57:15.786Z,100.00
2023-03-29T01:59:49.005Z,100.00
2023-03-29T02:02:23.490Z,100.00
2023-03-29T02:04:56.320Z,100.00
2023-03-29T02:07:31.932Z,100.00
2023-03-29T02:10:05.531Z,100.00
2023-03-29T02:12:40.335Z,100.00
2023-03-29T02:15:19.019Z,100.00
2023-03-29T02:17:53.319Z,100.00
2023-03-29T02:20:34.024Z,100.00
2023-03-29T02:23:21.661Z,100.00
2023-03-29T02:25:57.229Z,100.00
2023-03-29T02:28:32.104Z,100.00
2023-03-29T02:31:25.255Z,100.00
2023-03-29T02:34:33.283Z,100.00
2023-03-29T02:37:15.508Z,100.00
2023-03-29T02:39:51.637Z,100.00
2023-03-29T02:42:23.809Z,100.00
2023-03-29T02:44:59.160Z,100.00
2023-03-29T02:47:42.442Z,100.00
2023-03-29T02:50:16.072Z,100.00
2023-03-29T02:52:59.297Z,100.00
2023-03-29T02:55:34.309Z,100.00
2023-03-29T02:58:08.964Z,100.00
2023-03-29T03:00:49.462Z,100.00
2023-03-29T03:03:23.599Z,100.00
2023-03-29T03:05:57.277Z,100.00
2023-03-29T03:08:30.409Z,100.00
2023-03-29T03:11:03.907Z,100.00
2023-03-29T03:13:37.321Z,100.00
2023-03-29T03:16:11.294Z,100.00
2023-03-29T03:18:46.552Z,100.00
2023-03-29T03:21:21.088Z,100.00
2023-03-29T03:23:54.586Z,100.00
2023-03-29T03:26:29.844Z,100.00
2023-03-29T03:29:02.949Z,100.00
2023-03-29T03:31:55.246Z,100.00
2023-03-29T03:34:36.138Z,100.00
2023-03-29T03:37:09.065Z,100.00
2023-03-29T03:39:43.662Z,100.00
2023-03-29T03:42:16.603Z,100.00
2023-03-29T03:44:52.100Z,100.00
2023-03-29T03:47:40.466Z,100.00
2023-03-29T03:50:21.422Z,100.00
2023-03-29T03:52:54.331Z,100.00
2023-03-29T03:55:29.909Z,100.00
2023-03-29T03:58:08.346Z,100.00
2023-03-29T04:00:42.064Z,100.00
2023-03-29T04:03:21.981Z,100.00
2023-03-29T04:05:55.885Z,100.00
2023-03-29T04:08:30.577Z,100.00
2023-03-29T04:11:08.705Z,100.00
2023-03-29T04:13:43.202Z,100.00
2023-03-29T04:16:33.352Z,100.00
2023-03-29T04:19:09.226Z,100.00
2023-03-29T04:21:44.721Z,100.00
2023-03-29T04:24:18.302Z,100.00
2023-03-29T04:26:53.595Z,100.00
2023-03-29T04:29:28.695Z,100.00
2023-03-29T04:32:03.949Z,100.00
2023-03-29T04:34:41.806Z,100.00
2023-03-29T04:37:18.422Z,99.65
2023-03-29T04:39:52.795Z,99.27
2023-03-29T04:42:26.513Z,98.65
2023-03-29T04:45:01.377Z,98.41
2023-03-29T04:47:36.783Z,98.25
2023-03-29T04:50:12.197Z,97.88
2023-03-29T04:52:47.164Z,97.86
2023-03-29T04:55:20.189Z,97.95
2023-03-29T04:57:55.832Z,97.73
2023-03-29T05:00:31.658Z,98.14
2023-03-29T05:03:10.270Z,98.09
2023-03-29T05:05:44.813Z,98.01
2023-03-29T05:08:18.315Z,97.88
2023-03-29T05:11:13.881Z,97.47
2023-03-29T05:13:47.105Z,97.71
2023-03-29T05:16:21.033Z,97.68
2023-03-29T05:18:55.647Z,97.51
2023-03-29T05:21:30.576Z,98.00
2023-03-29T05:24:05.863Z,97.59
2023-03-29T05:26:56.785Z,97.28
2023-03-29T05:29:29.991Z,97.49
2023-03-29T05:32:04.634Z,97.84
2023-03-29T05:34:39.510Z,97.77
2023-03-29T05:37:13.694Z,97.81
2023-03-29T05:39:49.935Z,97.84
2023-03-29T05:42:25.613Z,98.27
2023-03-29T05:45:03.250Z,97.82
2023-03-29T05:47:37.253Z,97.97
2023-03-29T05:50:12.021Z,97.82
2023-03-29T05:52:46.384Z,97.50
2023-03-29T05:55:19.667Z,97.27
2023-03-29T05:57:53.554Z,96.86
2023-03-29T06:00:29.711Z,96.83
2023-03-29T06:03:17.688Z,96.50
2023-03-29T06:05:41.706Z,96.41
2023-03-29T06:08:15.992Z,96.09
2023-03-29T06:11:02.463Z,96.13
2023-03-29T06:13:55.821Z,96.26
2023-03-29T06:16:29.508Z,95.93
2023-03-29T06:19:03.008Z,95.43
2023-03-29T06:21:37.565Z,95.26
2023-03-29T06:24:13.792Z,95.16
2023-03-29T06:26:49.152Z,94.71
2023-03-29T06:29:22.386Z,94.00
2023-03-29T06:31:57.613Z,93.53
2023-03-29T06:34:44.839Z,93.23
2023-03-29T06:37:23.694Z,93.51
2023-03-29T06:39:58.330Z,93.36
2023-03-29T06:42:34.086Z,93.58
2023-03-29T06:45:29.441Z,94.06
2023-03-29T06:48:04.633Z,94.05
2023-03-29T06:50:37.543Z,94.32
2023-03-29T06:53:15.998Z,94.02
2023-03-29T06:55:52.822Z,93.76
2023-03-29T06:58:28.244Z,94.07
2023-03-29T07:01:04.570Z,94.02
2023-03-29T07:03:41.555Z,94.04
2023-03-29T07:06:17.135Z,94.25
2023-03-29T07:08:52.749Z,94.45
2023-03-29T07:11:37.744Z,94.24
2023-03-29T07:14:16.029Z,94.81
2023-03-29T07:16:49.892Z,94.90
2023-03-29T07:19:26.614Z,93.55
2023-03-29T07:22:10.280Z,93.67
2023-03-29T07:24:50.956Z,93.79
2023-03-29T07:27:24.184Z,93.12
2023-03-29T07:29:58.377Z,93.10
2023-03-29T07:32:34.313Z,92.66
2023-03-29T07:35:10.496Z,93.18
2023-03-29T07:37:44.750Z,93.70
2023-03-29T07:40:22.095Z,94.10
2023-03-29T07:43:06.064Z,93.79
2023-03-29T07:48:50.350Z,93.39
2023-03-29T07:51:23.567Z,93.77
2023-03-29T07:54:02.466Z,93.41
2023-03-29T07:56:52.424Z,93.43
2023-03-29T07:59:27.790Z,93.94
2023-03-29T08:02:02.951Z,93.65
2023-03-29T08:04:41.492Z,93.57
2023-03-29T08:07:21.657Z,93.61
2023-03-29T08:10:14.005Z,93.17
2023-03-29T08:13:08.565Z,93.24
2023-03-29T08:16:00.787Z,92.11
2023-03-29T08:18:38.648Z,91.90
2023-03-29T08:21:15.153Z,91.90
2023-03-29T08:23:49.900Z,92.43
2023-03-29T08:26:27.660Z,92.69
2023-03-29T08:29:00.974Z,93.26
2023-03-29T08:31:34.639Z,93.62
2023-03-29T08:34:08.297Z,93.68
2023-03-29T08:36:53.454Z,93.64
2023-03-29T08:39:29.437Z,93.53
2023-03-29T08:42:49.661Z,93.77
2023-03-29T08:45:40.452Z,93.99
2023-03-29T08:48:28.947Z,94.19
2023-03-29T08:51:10.187Z,94.65
2023-03-29T08:53:58.014Z,94.89
2023-03-29T08:56:35.891Z,94.66
2023-03-29T08:59:31.621Z,94.48
2023-03-29T09:02:10.281Z,94.23
2023-03-29T09:04:44.049Z,94.65
2023-03-29T09:07:30.513Z,95.31
2023-03-29T09:10:04.182Z,94.96
2023-03-29T09:13:02.939Z,95.36
2023-03-29T09:15:47.476Z,95.93
2023-03-29T09:18:50.000Z,95.72
2023-03-29T09:21:33.701Z,94.41
2023-03-29T09:24:29.841Z,94.28
2023-03-29T09:27:17.131Z,93.69
2023-03-29T09:30:26.352Z,93.20
2023-03-29T09:33:21.957Z,93.12
2023-03-29T09:36:10.273Z,93.31
2023-03-29T09:38:48.143Z,92.75
2023-03-29T09:41:32.088Z,91.57
2023-03-29T09:46:56.253Z,90.75
2023-03-29T09:49:36.062Z,89.72
2023-03-29T09:52:13.937Z,89.80
2023-03-29T09:54:52.003Z,89.79
2023-03-29T09:57:44.565Z,88.84
2023-03-29T10:00:21.097Z,88.13
2023-03-29T10:02:58.018Z,88.19
2023-03-29T10:05:38.317Z,87.91
2023-03-29T10:08:37.938Z,88.07
2023-03-29T10:11:24.945Z,86.94
2023-03-29T10:14:02.528Z,86.40
2023-03-29T10:16:48.040Z,85.20
2023-03-29T10:19:35.664Z,84.69
2023-03-29T10:22:19.429Z,84.46
2023-03-29T10:24:55.144Z,84.75
2023-03-29T10:27:30.427Z,85.01
2023-03-29T10:30:12.152Z,85.40
2023-03-29T10:32:46.598Z,85.23
2023-03-29T10:35:33.623Z,84.91
2023-03-29T10:38:10.483Z,84.81
2023-03-29T10:40:49.972Z,84.73
2023-03-29T10:43:26.853Z,85.10
2023-03-29T10:46:12.598Z,84.32
2023-03-29T10:48:49.398Z,83.39
2023-03-29T10:51:22.590Z,84.21
2023-03-29T10:53:56.378Z,84.37
2023-03-29T10:56:38.735Z,82.43
2023-03-29T10:59:32.959Z,81.48
2023-03-29T11:02:22.101Z,81.64
2023-03-29T11:05:27.719Z,82.46
2023-03-29T11:08:31.777Z,82.58
2023-03-29T11:11:17.670Z,81.36
2023-03-29T11:14:00.044Z,80.87
2023-03-29T11:16:58.894Z,80.25
2023-03-29T11:19:55.056Z,80.33
2023-03-29T11:22:44.377Z,80.35
2023-03-29T11:25:53.691Z,80.02
2023-03-29T11:28:49.580Z,80.37
2023-03-29T11:31:44.286Z,81.33
2023-03-29T11:34:52.992Z,80.80
2023-03-29T11:37:39.230Z,80.48
2023-03-29T11:40:44.754Z,80.06
2023-03-29T11:43:37.488Z,79.13
2023-03-29T11:46:23.696Z,78.92
2023-03-29T11:49:22.121Z,79.24
2023-03-29T11:52:36.036Z,79.24
2023-03-29T11:55:28.779Z,79.19
2023-03-29T11:58:26.212Z,79.38
2023-03-29T12:01:09.487Z,79.17
2023-03-29T12:03:52.377Z,79.41
2023-03-29T12:06:32.922Z,79.70
2023-03-29T12:09:36.031Z,79.74
2023-03-29T12:12:31.980Z,80.10
2023-03-29T12:15:25.308Z,79.64
2023-03-29T12:18:24.831Z,79.50
2023-03-29T12:21:01.682Z,80.23
2023-03-29T12:23:37.721Z,80.37
2023-03-29T12:26:31.064Z,80.56
2023-03-29T12:29:14.438Z,80.81
2023-03-29T12:32:26.649Z,81.17
2023-03-29T12:35:30.566Z,81.07
2023-03-29T12:38:29.405Z,79.94
2023-03-29T12:41:22.697Z,80.16
2023-03-29T12:44:11.601Z,80.43
2023-03-29T12:46:46.615Z,80.75
2023-03-29T12:49:29.990Z,80.81
2023-03-29T12:52:07.362Z,80.93
2023-03-29T12:54:41.019Z,80.82
2023-03-29T12:57:25.885Z,80.95
2023-03-29T13:00:04.371Z,81.18
2023-03-29T13:02:39.693Z,81.08
2023-03-29T13:05:32.174Z,81.24
2023-03-29T13:08:31.174Z,81.52
2023-03-29T13:11:05.530Z,81.64
2023-03-29T13:13:38.419Z,82.17
2023-03-29T13:16:24.626Z,81.94
2023-03-29T13:19:22.942Z,81.97
2023-03-29T13:22:21.834Z,82.35
2023-03-29T13:25:20.454Z,83.21
2023-03-29T13:27:58.446Z,83.64
2023-03-29T13:30:54.449Z,83.69
2023-03-29T13:34:07.279Z,84.33
2023-03-29T13:37:06.303Z,84.42
2023-03-29T13:39:41.769Z,84.64
2023-03-29T13:42:42.121Z,84.64
2023-03-29T13:45:28.276Z,84.80
2023-03-29T13:48:09.169Z,84.94
2023-03-29T13:50:47.392Z,85.13
2023-03-29T13:53:53.021Z,85.56
2023-03-29T13:56:34.285Z,86.04
2023-03-29T13:59:24.181Z,85.78
2023-03-29T14:02:00.833Z,85.92
2023-03-29T14:04:39.049Z,86.53
2023-03-29T14:07:15.165Z,86.52
2023-03-29T14:09:51.415Z,85.96
2023-03-29T14:12:25.365Z,86.29
2023-03-29T14:15:02.218Z,86.80
2023-03-29T14:17:38.247Z,86.99
2023-03-29T14:20:15.267Z,87.02
2023-03-29T14:22:49.699Z,87.33
2023-03-29T14:25:24.707Z,87.71
2023-03-29T14:27:57.840Z,87.41
2023-03-29T14:30:32.328Z,86.93
2023-03-29T14:33:06.524Z,86.67
2023-03-29T14:35:40.886Z,86.63
2023-03-29T14:38:15.177Z,86.38
2023-03-29T14:40:48.565Z,85.92
2023-03-29T14:43:24.442Z,86.42
2023-03-29T14:45:56.986Z,87.01
2023-03-29T14:48:32.901Z,87.67
2023-03-29T14:51:06.894Z,87.73
2023-03-29T14:53:40.987Z,87.92
2023-03-29T14:56:15.871Z,87.58
2023-03-29T14:58:50.551Z,87.86
2023-03-29T15:01:27.131Z,87.86
2023-03-29T15:04:07.692Z,87.88
2023-03-29T15:06:46.999Z,87.72
2023-03-29T15:09:24.294Z,87.67
2023-03-29T15:11:58.921Z,88.04
2023-03-29T15:14:35.081Z,88.38
2023-03-29T15:17:43.180Z,88.68
2023-03-29T15:20:11.574Z,88.85
2023-03-29T15:23:02.130Z,88.81
2023-03-29T15:25:37.825Z,88.51
2023-03-29T15:28:31.357Z,87.98
2023-03-29T15:31:13.545Z,88.29
2023-03-29T15:33:47.551Z,88.47
2023-03-29T15:36:20.536Z,88.81
2023-03-29T15:38:53.482Z,89.08
2023-03-29T15:41:27.648Z,89.69
2023-03-29T15:44:00.879Z,89.97
2023-03-29T15:46:34.264Z,90.16
2023-03-29T15:49:07.677Z,90.02
2023-03-29T15:51:41.950Z,90.00
2023-03-29T15:54:15.304Z,90.17
2023-03-29T15:57:04.749Z,89.89
2023-03-29T15:59:39.587Z,89.85
2023-03-29T16:02:17.079Z,90.26
2023-03-29T16:04:50.295Z,90.77
2023-03-29T16:07:23.386Z,91.31
2023-03-29T16:09:56.405Z,91.80
2023-03-29T16:12:29.238Z,91.88
2023-03-29T16:15:02.578Z,92.29
2023-03-29T16:17:36.436Z,92.57
2023-03-29T16:20:13.839Z,92.56
2023-03-29T16:22:51.598Z,92.81
2023-03-29T16:25:25.329Z,92.46
2023-03-29T16:27:58.792Z,92.54
2023-03-29T16:30:32.225Z,92.36
2023-03-29T16:33:07.444Z,92.83
2023-03-29T16:35:42.255Z,93.26
2023-03-29T16:38:15.549Z,93.40
2023-03-29T16:40:48.885Z,93.20
2023-03-29T16:43:22.457Z,93.22
2023-03-29T16:45:55.944Z,93.03
2023-03-29T16:48:28.903Z,92.82
2023-03-29T16:51:02.522Z,92.96
2023-03-29T16:53:36.537Z,92.81
2023-03-29T16:56:11.106Z,92.75
2023-03-29T16:58:45.386Z,92.97
2023-03-29T17:01:19.893Z,93.17
2023-03-29T17:03:53.342Z,93.34
2023-03-29T17:06:27.077Z,93.29
2023-03-29T17:09:00.980Z,92.68
2023-03-29T17:11:34.010Z,92.86
2023-03-29T17:14:07.487Z,92.83
2023-03-29T17:16:41.080Z,92.72
2023-03-29T17:19:15.021Z,92.75
2023-03-29T17:21:48.626Z,92.94
2023-03-29T17:24:22.544Z,93.53
2023-03-29T17:26:55.652Z,93.56
2023-03-29T17:29:28.753Z,93.36
2023-03-29T17:32:02.373Z,93.79
2023-03-29T17:34:35.890Z,93.68
2023-03-29T17:37:10.275Z,93.67
2023-03-29T17:39:43.538Z,93.77
2023-03-29T17:42:17.608Z,93.74
2023-03-29T17:44:51.745Z,93.93
2023-03-29T17:47:25.263Z,94.10
2023-03-29T17:49:58.232Z,94.12
2023-03-29T17:52:31.245Z,93.99
2023-03-29T17:55:06.340Z,94.08
2023-03-29T17:57:41.036Z,94.02
2023-03-29T18:00:16.080Z,93.63
2023-03-29T18:02:49.591Z,93.81
2023-03-29T18:05:23.378Z,94.01
2023-03-29T18:07:57.571Z,93.68
2023-03-29T18:10:31.260Z,93.77
2023-03-29T18:13:04.368Z,93.92
2023-03-29T18:15:37.848Z,94.23
2023-03-29T18:18:11.978Z,93.97
2023-03-29T18:20:47.184Z,94.29
2023-03-29T18:23:20.694Z,94.70
2023-03-29T18:25:55.519Z,94.98
2023-03-29T18:28:28.692Z,95.08
2023-03-29T18:31:01.854Z,95.32
2023-03-29T18:33:36.074Z,95.38
2023-03-29T18:36:13.279Z,95.31
2023-03-29T18:38:46.109Z,95.40
2023-03-29T18:41:19.199Z,95.65
2023-03-29T18:43:52.691Z,95.47
2023-03-29T18:46:26.251Z,95.49
2023-03-29T18:49:03.101Z,95.35
2023-03-29T18:51:37.223Z,95.54
2023-03-29T18:54:10.449Z,95.56
2023-03-29T18:56:44.910Z,95.80
2023-03-29T18:59:18.436Z,95.55
2023-03-29T19:01:51.348Z,95.37
2023-03-29T19:04:26.808Z,95.08
2023-03-29T19:07:01.620Z,94.75
2023-03-29T19:09:36.130Z,94.75
2023-03-29T19:12:09.481Z,94.92
2023-03-29T19:14:42.755Z,95.01
2023-03-29T19:17:16.698Z,94.79
2023-03-29T19:19:50.310Z,94.85
2023-03-29T19:22:23.649Z,94.96
2023-03-29T19:24:56.901Z,95.02
2023-03-29T19:27:30.899Z,94.93
2023-03-29T19:30:04.732Z,94.85
2023-03-29T19:32:38.495Z,94.90
2023-03-29T19:35:13.823Z,94.77
2023-03-29T19:37:47.444Z,94.96
2023-03-29T19:40:21.386Z,94.88
2023-03-29T19:42:55.499Z,94.71
2023-03-29T19:45:28.739Z,94.54
2023-03-29T19:48:03.751Z,94.64
2023-03-29T19:50:43.205Z,94.76
2023-03-29T19:53:16.975Z,94.78
2023-03-29T19:55:50.179Z,94.90
2023-03-29T19:58:24.013Z,94.84
2023-03-29T20:00:59.422Z,94.86
2023-03-29T20:03:34.502Z,94.81
2023-03-29T20:06:08.648Z,94.58
2023-03-29T20:08:41.893Z,94.39
2023-03-29T20:11:16.601Z,94.28
2023-03-29T20:13:49.009Z,93.95
2023-03-29T20:16:23.600Z,93.96
2023-03-29T20:18:57.480Z,94.11
2023-03-29T20:21:33.544Z,94.35
2023-03-29T20:24:08.997Z,94.63
2023-03-29T20:26:42.162Z,94.80
2023-03-29T20:29:18.158Z,94.95
2023-03-29T20:31:52.423Z,94.79
2023-03-29T20:34:25.810Z,94.71
2023-03-29T20:37:00.408Z,94.93
2023-03-29T20:39:34.091Z,94.91
2023-03-29T20:42:07.487Z,94.84
2023-03-29T20:44:40.602Z,94.81
2023-03-29T20:47:14.460Z,94.75
2023-03-29T20:49:47.382Z,95.00
2023-03-29T20:52:22.384Z,94.82
2023-03-29T20:54:55.418Z,94.78
2023-03-29T20:57:30.389Z,94.82
2023-03-29T21:00:05.407Z,95.27
2023-03-29T21:02:39.729Z,95.38
2023-03-29T21:05:12.152Z,95.57
2023-03-29T21:07:45.144Z,95.62
2023-03-29T21:10:19.238Z,96.05
2023-03-29T21:12:55.514Z,95.80
2023-03-29T21:15:30.952Z,95.64
2023-03-29T21:18:05.648Z,95.78
2023-03-29T21:20:39.333Z,95.81
2023-03-29T21:23:12.348Z,95.77
2023-03-29T21:25:45.263Z,95.56
2023-03-29T21:28:18.259Z,95.59
2023-03-29T21:30:51.514Z,95.49
2023-03-29T21:33:25.032Z,95.66
2023-03-29T21:35:57.786Z,95.74
2023-03-29T21:38:31.142Z,95.77
2023-03-29T21:41:04.356Z,95.47
2023-03-29T21:43:37.405Z,95.39
2023-03-29T21:46:10.810Z,95.37
2023-03-29T21:48:44.168Z,95.44
2023-03-29T21:51:17.132Z,95.53
2023-03-29T21:53:50.410Z,95.64
2023-03-29T21:56:23.464Z,95.63
2023-03-29T21:58:56.254Z,95.54
2023-03-29T22:01:30.353Z,95.54
2023-03-29T22:04:04.562Z,95.75
2023-03-29T22:06:38.081Z,95.70
2023-03-29T22:09:11.618Z,95.83
2023-03-29T22:11:45.162Z,96.10
2023-03-29T22:14:19.718Z,96.09
2023-03-29T22:16:53.149Z,96.24
2023-03-29T22:19:26.219Z,96.22
2023-03-29T22:22:01.870Z,96.50
2023-03-29T22:24:35.972Z,96.55
2023-03-29T22:27:09.664Z,96.82
2023-03-29T22:29:42.535Z,96.68
2023-03-29T22:32:15.941Z,96.89
2023-03-29T22:34:49.434Z,96.91
2023-03-29T22:37:23.014Z,96.99
2023-03-29T22:39:56.056Z,96.98
2023-03-29T22:42:29.520Z,97.12
2023-03-29T22:45:02.497Z,97.19
2023-03-29T22:47:36.773Z,97.03
2023-03-29T22:50:10.995Z,96.78
2023-03-29T22:52:44.242Z,97.01
2023-03-29T22:55:17.592Z,96.84
2023-03-29T22:57:51.262Z,96.90
2023-03-29T23:00:24.800Z,96.87
2023-03-29T23:02:58.193Z,96.61
2023-03-29T23:05:31.215Z,96.43
2023-03-29T23:08:04.298Z,96.69
2023-03-29T23:10:37.755Z,96.79
2023-03-29T23:13:13.248Z,96.76
2023-03-29T23:15:49.674Z,96.78
2023-03-29T23:18:24.510Z,96.70
2023-03-29T23:21:00.629Z,96.69
2023-03-29T23:23:34.566Z,96.77
2023-03-29T23:26:12.222Z,97.17
2023-03-29T23:28:45.226Z,97.08
2023-03-29T23:31:18.909Z,96.93
2023-03-29T23:33:53.328Z,97.00
2023-03-29T23:36:27.968Z,97.13
2023-03-29T23:39:02.216Z,96.74
2023-03-29T23:41:35.388Z,96.41
2023-03-29T23:44:08.978Z,96.65
2023-03-29T23:46:42.309Z,96.64
2023-03-29T23:49:15.371Z,96.77
2023-03-29T23:51:50.920Z,96.62
2023-03-29T23:54:24.248Z,96.72
2023-03-29T23:56:58.269Z,96.87
2023-03-29T23:59:33.046Z,96.46
